メインページ
METAR-TAF:

METAR-TAF

空港 :

イエローナイフ, ノースウェスト準州, カナダ

イエローナイフ空港

緯度: 62-28N, 経度: 114-27W, 海抜: 205m

現時点の気象観測

当レポートは26分前の16:00(UTC)に作成
の風 4kt
気温 -32°C
湿度 74%
気圧 1013 hPa
視程: 24.1km
高度1500ftの雲はほとんどない

METAR: CYZF 221600Z 35004KT 15SM FEW015 M32/M35 A2991 RMK SC1 SC TR SLP160

時間: 09:26 (16:26 UTC)

予報

当レポートは4時間48分前の11:38(UTC)に作成
予報は22日の 12時(UTC)から 23日の 12時(UTC)まで有効
北西の風 10kt
視程: 10km
高度1500ftの雲はほとんどない
22日の 19時(UTC)から 22日の 21時(UTC)まで徐々に
北東の風 5kt
23日の 0600時(UTC)から
の風 10kt
視程: 10km
高度1500ftの雲は散在している

TAF: CYZF 221138Z 2212/2312 32010KT P6SM FEW015 BECMG 2219/2221 05005KT FM230600 09010KT P6SM SCT015 RMK NXT FCST BY 221800Z

4,000以上の空港の気象観測と天気予報(METAR報とTAF報)

利用可能な観測所は地図上に黄色い丸と赤い丸で示す。

丸の上にカーソルを重ねると観測所名を参照できる。

次にクリックすると気象観測と天気予報を参照できる。

マップの切り替え:黒色「×」印の緑ボタンをクリックして拡大、「-」印の緑ボタンをクリックして縮小、緑色の三角印をクリックして隣りの地図に切り替え


METAR-TAF: